sensor_id;sensor_type;location;lat;lon;timestamp;temperature;humidity
30572;DHT22;17348;50.948;10.696;2024-01-30T00:02:35;3.00;99.90
30572;DHT22;17348;50.948;10.696;2024-01-30T00:05:38;3.00;99.90
30572;DHT22;17348;50.948;10.696;2024-01-30T00:08:42;3.00;99.90
30572;DHT22;17348;50.948;10.696;2024-01-30T00:11:47;2.90;99.90
30572;DHT22;17348;50.948;10.696;2024-01-30T00:14:49;2.90;99.90
30572;DHT22;17348;50.948;10.696;2024-01-30T00:17:53;2.90;99.90
30572;DHT22;17348;50.948;10.696;2024-01-30T00:20:55;2.80;99.90
30572;DHT22;17348;50.948;10.696;2024-01-30T00:23:58;2.80;99.90
30572;DHT22;17348;50.948;10.696;2024-01-30T00:27:08;2.80;99.90
30572;DHT22;17348;50.948;10.696;2024-01-30T00:30:13;2.80;99.90
30572;DHT22;17348;50.948;10.696;2024-01-30T00:33:16;2.80;99.90
30572;DHT22;17348;50.948;10.696;2024-01-30T00:36:19;2.90;99.90
30572;DHT22;17348;50.948;10.696;2024-01-30T00:39:24;2.90;99.90
30572;DHT22;17348;50.948;10.696;2024-01-30T00:42:27;2.90;99.90
30572;DHT22;17348;50.948;10.696;2024-01-30T00:45:29;2.90;99.90
30572;DHT22;17348;50.948;10.696;2024-01-30T00:48:35;2.90;99.90
30572;DHT22;17348;50.948;10.696;2024-01-30T00:51:37;2.90;99.90
30572;DHT22;17348;50.948;10.696;2024-01-30T00:54:40;3.00;99.90
30572;DHT22;17348;50.948;10.696;2024-01-30T00:57:42;3.00;99.90
30572;DHT22;17348;50.948;10.696;2024-01-30T01:00:46;3.20;99.90
30572;DHT22;17348;50.948;10.696;2024-01-30T01:03:50;3.20;99.90
30572;DHT22;17348;50.948;10.696;2024-01-30T01:06:52;3.30;99.90
30572;DHT22;17348;50.948;10.696;2024-01-30T01:09:56;3.40;99.90
30572;DHT22;17348;50.948;10.696;2024-01-30T01:12:58;3.40;99.90
30572;DHT22;17348;50.948;10.696;2024-01-30T01:16:02;3.50;99.90
30572;DHT22;17348;50.948;10.696;2024-01-30T01:19:06;3.60;99.90
30572;DHT22;17348;50.948;10.696;2024-01-30T01:22:09;3.60;99.90
30572;DHT22;17348;50.948;10.696;2024-01-30T01:25:11;3.60;99.90
30572;DHT22;17348;50.948;10.696;2024-01-30T01:28:13;3.70;99.90
30572;DHT22;17348;50.948;10.696;2024-01-30T01:31:16;3.80;99.90
30572;DHT22;17348;50.948;10.696;2024-01-30T01:34:20;3.90;99.90
30572;DHT22;17348;50.948;10.696;2024-01-30T01:37:22;4.00;99.90
30572;DHT22;17348;50.948;10.696;2024-01-30T01:40:27;4.10;99.90
30572;DHT22;17348;50.948;10.696;2024-01-30T01:43:30;4.10;99.90
30572;DHT22;17348;50.948;10.696;2024-01-30T01:46:33;4.20;99.90
30572;DHT22;17348;50.948;10.696;2024-01-30T01:49:37;4.20;99.90
30572;DHT22;17348;50.948;10.696;2024-01-30T01:52:41;4.30;99.90
30572;DHT22;17348;50.948;10.696;2024-01-30T01:55:45;4.40;99.90
30572;DHT22;17348;50.948;10.696;2024-01-30T01:58:48;4.40;99.90
30572;DHT22;17348;50.948;10.696;2024-01-30T02:01:53;4.50;99.90
30572;DHT22;17348;50.948;10.696;2024-01-30T02:04:57;4.50;99.90
30572;DHT22;17348;50.948;10.696;2024-01-30T02:08:00;4.50;99.90
30572;DHT22;17348;50.948;10.696;2024-01-30T02:11:04;4.40;99.90
30572;DHT22;17348;50.948;10.696;2024-01-30T02:14:07;4.30;99.90
30572;DHT22;17348;50.948;10.696;2024-01-30T02:17:11;4.20;99.90
30572;DHT22;17348;50.948;10.696;2024-01-30T02:20:14;4.20;99.90
30572;DHT22;17348;50.948;10.696;2024-01-30T02:23:19;4.10;99.90
30572;DHT22;17348;50.948;10.696;2024-01-30T02:26:22;4.10;99.90
30572;DHT22;17348;50.948;10.696;2024-01-30T02:29:24;4.10;99.90
30572;DHT22;17348;50.948;10.696;2024-01-30T02:32:26;4.00;99.90
30572;DHT22;17348;50.948;10.696;2024-01-30T02:35:29;4.10;99.90
30572;DHT22;17348;50.948;10.696;2024-01-30T02:38:32;4.10;99.90
30572;DHT22;17348;50.948;10.696;2024-01-30T02:41:35;4.20;99.90
30572;DHT22;17348;50.948;10.696;2024-01-30T02:44:37;4.20;99.90
30572;DHT22;17348;50.948;10.696;2024-01-30T02:47:40;4.20;99.90
30572;DHT22;17348;50.948;10.696;2024-01-30T02:50:42;4.20;99.90
30572;DHT22;17348;50.948;10.696;2024-01-30T02:53:47;4.20;99.90
30572;DHT22;17348;50.948;10.696;2024-01-30T02:56:49;4.30;99.90
30572;DHT22;17348;50.948;10.696;2024-01-30T02:59:52;4.30;99.90
30572;DHT22;17348;50.948;10.696;2024-01-30T03:02:54;4.40;99.90
30572;DHT22;17348;50.948;10.696;2024-01-30T03:05:57;4.50;99.90
30572;DHT22;17348;50.948;10.696;2024-01-30T03:09:00;4.50;99.90
30572;DHT22;17348;50.948;10.696;2024-01-30T03:12:06;4.70;99.90
30572;DHT22;17348;50.948;10.696;2024-01-30T03:15:08;4.80;99.90
30572;DHT22;17348;50.948;10.696;2024-01-30T03:18:11;4.90;99.90
30572;DHT22;17348;50.948;10.696;2024-01-30T03:21:14;5.00;99.90
30572;DHT22;17348;50.948;10.696;2024-01-30T03:24:17;5.10;99.90
30572;DHT22;17348;50.948;10.696;2024-01-30T03:27:20;5.20;99.90
30572;DHT22;17348;50.948;10.696;2024-01-30T03:30:22;5.30;99.90
30572;DHT22;17348;50.948;10.696;2024-01-30T03:33:24;5.30;99.90
30572;DHT22;17348;50.948;10.696;2024-01-30T03:36:28;5.40;99.90
30572;DHT22;17348;50.948;10.696;2024-01-30T03:39:35;5.40;99.90
30572;DHT22;17348;50.948;10.696;2024-01-30T03:42:37;5.50;99.90
30572;DHT22;17348;50.948;10.696;2024-01-30T03:45:39;5.50;99.90
30572;DHT22;17348;50.948;10.696;2024-01-30T03:48:42;5.60;99.90
30572;DHT22;17348;50.948;10.696;2024-01-30T03:51:44;5.70;99.90
30572;DHT22;17348;50.948;10.696;2024-01-30T03:54:50;5.70;99.90
30572;DHT22;17348;50.948;10.696;2024-01-30T03:57:52;5.70;99.90
30572;DHT22;17348;50.948;10.696;2024-01-30T04:00:54;5.70;99.90
30572;DHT22;17348;50.948;10.696;2024-01-30T04:03:57;5.70;99.90
30572;DHT22;17348;50.948;10.696;2024-01-30T04:06:59;5.80;99.90
30572;DHT22;17348;50.948;10.696;2024-01-30T04:10:03;5.80;99.90
30572;DHT22;17348;50.948;10.696;2024-01-30T04:13:06;5.80;99.90
30572;DHT22;17348;50.948;10.696;2024-01-30T04:16:22;5.80;99.90
30572;DHT22;17348;50.948;10.696;2024-01-30T04:19:24;5.80;99.90
30572;DHT22;17348;50.948;10.696;2024-01-30T04:22:26;5.80;99.90
30572;DHT22;17348;50.948;10.696;2024-01-30T04:25:32;5.80;99.90
30572;DHT22;17348;50.948;10.696;2024-01-30T04:28:43;5.70;99.90
30572;DHT22;17348;50.948;10.696;2024-01-30T04:31:45;5.70;99.90
30572;DHT22;17348;50.948;10.696;2024-01-30T04:34:49;5.60;99.90
30572;DHT22;17348;50.948;10.696;2024-01-30T04:37:52;5.60;99.90
30572;DHT22;17348;50.948;10.696;2024-01-30T04:40:56;5.60;99.90
30572;DHT22;17348;50.948;10.696;2024-01-30T04:43:58;5.50;99.90
30572;DHT22;17348;50.948;10.696;2024-01-30T04:47:03;5.40;99.90
30572;DHT22;17348;50.948;10.696;2024-01-30T04:50:08;5.40;99.90
30572;DHT22;17348;50.948;10.696;2024-01-30T04:53:10;5.30;99.90
30572;DHT22;17348;50.948;10.696;2024-01-30T04:56:14;5.20;99.90
30572;DHT22;17348;50.948;10.696;2024-01-30T04:59:17;5.20;99.90
30572;DHT22;17348;50.948;10.696;2024-01-30T05:02:19;5.10;99.90
30572;DHT22;17348;50.948;10.696;2024-01-30T05:05:24;5.00;99.90
30572;DHT22;17348;50.948;10.696;2024-01-30T05:08:26;4.90;99.90
30572;DHT22;17348;50.948;10.696;2024-01-30T05:11:30;4.80;99.90
30572;DHT22;17348;50.948;10.696;2024-01-30T05:14:35;4.80;99.90
30572;DHT22;17348;50.948;10.696;2024-01-30T05:17:38;4.70;99.90
30572;DHT22;17348;50.948;10.696;2024-01-30T05:20:40;4.60;99.90
30572;DHT22;17348;50.948;10.696;2024-01-30T05:23:42;4.60;99.90
30572;DHT22;17348;50.948;10.696;2024-01-30T05:26:46;4.50;99.90
30572;DHT22;17348;50.948;10.696;2024-01-30T05:29:49;4.40;99.90
30572;DHT22;17348;50.948;10.696;2024-01-30T05:32:51;4.20;99.90
30572;DHT22;17348;50.948;10.696;2024-01-30T05:35:53;4.10;99.90
30572;DHT22;17348;50.948;10.696;2024-01-30T05:38:56;4.00;99.90
30572;DHT22;17348;50.948;10.696;2024-01-30T05:42:00;3.90;99.90
30572;DHT22;17348;50.948;10.696;2024-01-30T05:45:02;3.80;99.90
30572;DHT22;17348;50.948;10.696;2024-01-30T05:48:06;3.80;99.90
30572;DHT22;17348;50.948;10.696;2024-01-30T05:51:09;3.70;99.90
30572;DHT22;17348;50.948;10.696;2024-01-30T05:54:13;3.60;99.90
30572;DHT22;17348;50.948;10.696;2024-01-30T05:57:17;3.60;99.90
30572;DHT22;17348;50.948;10.696;2024-01-30T06:00:19;3.50;99.90
30572;DHT22;17348;50.948;10.696;2024-01-30T06:03:21;3.50;99.90
30572;DHT22;17348;50.948;10.696;2024-01-30T06:06:26;3.40;99.90
30572;DHT22;17348;50.948;10.696;2024-01-30T06:09:29;3.30;99.90
30572;DHT22;17348;50.948;10.696;2024-01-30T06:12:32;3.30;99.90
30572;DHT22;17348;50.948;10.696;2024-01-30T06:15:35;3.30;99.90
30572;DHT22;17348;50.948;10.696;2024-01-30T06:18:37;3.20;99.90
30572;DHT22;17348;50.948;10.696;2024-01-30T06:21:42;3.20;99.90
30572;DHT22;17348;50.948;10.696;2024-01-30T06:24:44;3.10;99.90
30572;DHT22;17348;50.948;10.696;2024-01-30T06:27:50;3.10;99.90
30572;DHT22;17348;50.948;10.696;2024-01-30T06:30:52;3.10;99.90
30572;DHT22;17348;50.948;10.696;2024-01-30T06:33:54;3.00;99.90
30572;DHT22;17348;50.948;10.696;2024-01-30T06:36:57;3.00;99.90
30572;DHT22;17348;50.948;10.696;2024-01-30T06:39:59;3.00;99.90
30572;DHT22;17348;50.948;10.696;2024-01-30T06:43:03;3.00;99.90
30572;DHT22;17348;50.948;10.696;2024-01-30T06:46:06;2.90;99.90
30572;DHT22;17348;50.948;10.696;2024-01-30T06:49:08;2.90;99.90
30572;DHT22;17348;50.948;10.696;2024-01-30T06:52:11;2.90;99.90
30572;DHT22;17348;50.948;10.696;2024-01-30T06:55:13;2.80;99.90
30572;DHT22;17348;50.948;10.696;2024-01-30T06:58:17;2.80;99.90
30572;DHT22;17348;50.948;10.696;2024-01-30T07:01:20;2.90;99.90
30572;DHT22;17348;50.948;10.696;2024-01-30T07:04:22;2.80;99.90
30572;DHT22;17348;50.948;10.696;2024-01-30T07:07:24;2.80;99.90
30572;DHT22;17348;50.948;10.696;2024-01-30T07:10:27;2.90;99.90
30572;DHT22;17348;50.948;10.696;2024-01-30T07:13:31;2.90;99.90
30572;DHT22;17348;50.948;10.696;2024-01-30T07:16:33;2.90;99.90
30572;DHT22;17348;50.948;10.696;2024-01-30T07:19:36;2.90;99.90
30572;DHT22;17348;50.948;10.696;2024-01-30T07:22:38;3.00;99.90
30572;DHT22;17348;50.948;10.696;2024-01-30T07:25:41;3.00;99.90
30572;DHT22;17348;50.948;10.696;2024-01-30T07:28:44;3.10;99.90
30572;DHT22;17348;50.948;10.696;2024-01-30T07:31:47;3.20;99.90
30572;DHT22;17348;50.948;10.696;2024-01-30T07:34:49;3.20;99.90
30572;DHT22;17348;50.948;10.696;2024-01-30T07:37:52;3.20;99.90
30572;DHT22;17348;50.948;10.696;2024-01-30T07:40:54;3.30;99.90
30572;DHT22;17348;50.948;10.696;2024-01-30T07:43:59;3.30;99.90
30572;DHT22;17348;50.948;10.696;2024-01-30T07:47:01;3.40;99.90
30572;DHT22;17348;50.948;10.696;2024-01-30T07:50:05;3.40;99.90
30572;DHT22;17348;50.948;10.696;2024-01-30T07:53:07;3.50;99.90
30572;DHT22;17348;50.948;10.696;2024-01-30T07:56:09;3.50;99.90
30572;DHT22;17348;50.948;10.696;2024-01-30T07:59:13;3.60;99.90
30572;DHT22;17348;50.948;10.696;2024-01-30T08:02:15;3.70;99.90
30572;DHT22;17348;50.948;10.696;2024-01-30T08:05:21;3.80;99.90
30572;DHT22;17348;50.948;10.696;2024-01-30T08:08:24;3.80;99.90
30572;DHT22;17348;50.948;10.696;2024-01-30T08:11:27;3.90;99.90
30572;DHT22;17348;50.948;10.696;2024-01-30T08:14:32;4.00;99.90
30572;DHT22;17348;50.948;10.696;2024-01-30T08:17:34;4.20;99.90
30572;DHT22;17348;50.948;10.696;2024-01-30T08:20:36;4.30;99.90
30572;DHT22;17348;50.948;10.696;2024-01-30T08:23:38;4.50;99.90
30572;DHT22;17348;50.948;10.696;2024-01-30T08:26:41;4.50;99.90
30572;DHT22;17348;50.948;10.696;2024-01-30T08:29:44;4.60;99.90
30572;DHT22;17348;50.948;10.696;2024-01-30T08:32:47;4.70;99.90
30572;DHT22;17348;50.948;10.696;2024-01-30T08:35:51;4.80;99.90
30572;DHT22;17348;50.948;10.696;2024-01-30T08:38:53;5.00;99.90
30572;DHT22;17348;50.948;10.696;2024-01-30T08:41:56;5.10;99.90
30572;DHT22;17348;50.948;10.696;2024-01-30T08:45:00;5.20;99.90
30572;DHT22;17348;50.948;10.696;2024-01-30T08:48:03;5.30;99.90
30572;DHT22;17348;50.948;10.696;2024-01-30T08:51:11;5.40;99.90
30572;DHT22;17348;50.948;10.696;2024-01-30T08:54:23;5.60;99.90
30572;DHT22;17348;50.948;10.696;2024-01-30T08:57:25;5.60;99.90
30572;DHT22;17348;50.948;10.696;2024-01-30T09:00:36;5.70;99.90
30572;DHT22;17348;50.948;10.696;2024-01-30T09:03:38;5.80;99.90
30572;DHT22;17348;50.948;10.696;2024-01-30T09:06:42;5.90;99.90
30572;DHT22;17348;50.948;10.696;2024-01-30T09:09:44;6.00;99.90
30572;DHT22;17348;50.948;10.696;2024-01-30T09:12:48;6.10;99.90
30572;DHT22;17348;50.948;10.696;2024-01-30T09:15:52;6.30;99.90
30572;DHT22;17348;50.948;10.696;2024-01-30T09:18:56;6.40;99.90
30572;DHT22;17348;50.948;10.696;2024-01-30T09:21:59;6.50;99.90
30572;DHT22;17348;50.948;10.696;2024-01-30T09:25:01;6.60;99.90
30572;DHT22;17348;50.948;10.696;2024-01-30T09:28:05;6.70;99.90
30572;DHT22;17348;50.948;10.696;2024-01-30T09:31:11;6.80;99.90
30572;DHT22;17348;50.948;10.696;2024-01-30T09:34:13;6.90;99.90
30572;DHT22;17348;50.948;10.696;2024-01-30T09:37:18;7.00;99.90
30572;DHT22;17348;50.948;10.696;2024-01-30T09:40:32;7.10;99.90
30572;DHT22;17348;50.948;10.696;2024-01-30T09:43:38;7.20;99.90
30572;DHT22;17348;50.948;10.696;2024-01-30T09:46:40;7.20;99.90
30572;DHT22;17348;50.948;10.696;2024-01-30T09:49:46;7.20;99.90
30572;DHT22;17348;50.948;10.696;2024-01-30T09:52:53;7.20;99.90
30572;DHT22;17348;50.948;10.696;2024-01-30T09:55:58;7.20;99.90
30572;DHT22;17348;50.948;10.696;2024-01-30T09:59:03;7.30;99.90
30572;DHT22;17348;50.948;10.696;2024-01-30T10:02:10;7.40;99.90
30572;DHT22;17348;50.948;10.696;2024-01-30T10:05:16;7.50;99.90
30572;DHT22;17348;50.948;10.696;2024-01-30T10:08:21;7.60;99.90
30572;DHT22;17348;50.948;10.696;2024-01-30T10:11:25;7.70;99.90
30572;DHT22;17348;50.948;10.696;2024-01-30T10:14:30;7.80;99.90
30572;DHT22;17348;50.948;10.696;2024-01-30T10:17:34;7.80;99.90
30572;DHT22;17348;50.948;10.696;2024-01-30T10:20:39;7.90;99.90
30572;DHT22;17348;50.948;10.696;2024-01-30T10:23:43;8.00;99.90
30572;DHT22;17348;50.948;10.696;2024-01-30T10:26:47;8.00;99.90
30572;DHT22;17348;50.948;10.696;2024-01-30T10:29:49;8.10;99.90
30572;DHT22;17348;50.948;10.696;2024-01-30T10:32:52;8.20;99.90
30572;DHT22;17348;50.948;10.696;2024-01-30T10:36:00;8.20;99.90
30572;DHT22;17348;50.948;10.696;2024-01-30T10:39:06;8.20;99.90
30572;DHT22;17348;50.948;10.696;2024-01-30T10:42:13;8.30;99.90
30572;DHT22;17348;50.948;10.696;2024-01-30T10:45:17;8.30;99.90
30572;DHT22;17348;50.948;10.696;2024-01-30T10:48:24;8.40;99.90
30572;DHT22;17348;50.948;10.696;2024-01-30T10:51:31;8.50;99.90
30572;DHT22;17348;50.948;10.696;2024-01-30T10:54:35;8.60;99.90
30572;DHT22;17348;50.948;10.696;2024-01-30T10:57:39;8.60;99.90
30572;DHT22;17348;50.948;10.696;2024-01-30T11:00:42;8.60;99.90
30572;DHT22;17348;50.948;10.696;2024-01-30T11:03:45;8.60;99.90
30572;DHT22;17348;50.948;10.696;2024-01-30T11:06:58;8.70;99.90
30572;DHT22;17348;50.948;10.696;2024-01-30T11:10:03;8.70;99.90
30572;DHT22;17348;50.948;10.696;2024-01-30T11:13:13;8.80;99.90
30572;DHT22;17348;50.948;10.696;2024-01-30T11:16:16;8.80;99.90
30572;DHT22;17348;50.948;10.696;2024-01-30T11:19:25;8.90;99.90
30572;DHT22;17348;50.948;10.696;2024-01-30T11:22:33;9.00;99.90
30572;DHT22;17348;50.948;10.696;2024-01-30T11:25:43;9.00;99.90
30572;DHT22;17348;50.948;10.696;2024-01-30T11:28:55;9.10;99.90
30572;DHT22;17348;50.948;10.696;2024-01-30T11:31:59;9.20;99.90
30572;DHT22;17348;50.948;10.696;2024-01-30T11:35:03;9.30;99.90
30572;DHT22;17348;50.948;10.696;2024-01-30T11:38:08;9.40;99.90
30572;DHT22;17348;50.948;10.696;2024-01-30T11:41:11;9.50;99.90
30572;DHT22;17348;50.948;10.696;2024-01-30T11:44:16;9.60;99.90
30572;DHT22;17348;50.948;10.696;2024-01-30T11:47:19;9.80;99.90
30572;DHT22;17348;50.948;10.696;2024-01-30T11:50:21;10.00;99.90
30572;DHT22;17348;50.948;10.696;2024-01-30T11:53:23;10.20;99.90
30572;DHT22;17348;50.948;10.696;2024-01-30T11:56:28;10.30;99.90
30572;DHT22;17348;50.948;10.696;2024-01-30T11:59:32;10.50;99.90
30572;DHT22;17348;50.948;10.696;2024-01-30T12:02:34;10.60;99.90
30572;DHT22;17348;50.948;10.696;2024-01-30T12:05:37;10.80;99.90
30572;DHT22;17348;50.948;10.696;2024-01-30T12:08:57;10.90;99.90
30572;DHT22;17348;50.948;10.696;2024-01-30T12:12:00;10.90;99.90
30572;DHT22;17348;50.948;10.696;2024-01-30T12:15:10;11.10;99.90
30572;DHT22;17348;50.948;10.696;2024-01-30T12:18:12;11.10;99.90
30572;DHT22;17348;50.948;10.696;2024-01-30T12:21:16;11.20;99.90
30572;DHT22;17348;50.948;10.696;2024-01-30T12:24:19;11.30;99.90
30572;DHT22;17348;50.948;10.696;2024-01-30T12:27:21;11.40;99.90
30572;DHT22;17348;50.948;10.696;2024-01-30T12:30:25;11.50;99.90
30572;DHT22;17348;50.948;10.696;2024-01-30T12:33:27;11.50;99.90
30572;DHT22;17348;50.948;10.696;2024-01-30T12:36:31;11.60;99.90
30572;DHT22;17348;50.948;10.696;2024-01-30T12:39:36;11.60;99.90
30572;DHT22;17348;50.948;10.696;2024-01-30T12:42:39;11.50;99.90
30572;DHT22;17348;50.948;10.696;2024-01-30T12:45:42;11.60;99.90
30572;DHT22;17348;50.948;10.696;2024-01-30T12:48:45;11.70;99.90
30572;DHT22;17348;50.948;10.696;2024-01-30T12:51:48;11.80;99.90
30572;DHT22;17348;50.948;10.696;2024-01-30T12:54:50;11.80;99.90
30572;DHT22;17348;50.948;10.696;2024-01-30T12:57:55;11.90;99.90
30572;DHT22;17348;50.948;10.696;2024-01-30T13:01:02;12.00;99.90
30572;DHT22;17348;50.948;10.696;2024-01-30T13:04:04;12.00;99.90
30572;DHT22;17348;50.948;10.696;2024-01-30T13:07:06;12.00;99.90
30572;DHT22;17348;50.948;10.696;2024-01-30T13:10:09;12.10;99.90
30572;DHT22;17348;50.948;10.696;2024-01-30T13:13:11;12.10;99.90
30572;DHT22;17348;50.948;10.696;2024-01-30T13:16:16;12.20;99.90
30572;DHT22;17348;50.948;10.696;2024-01-30T13:19:19;12.20;99.90
30572;DHT22;17348;50.948;10.696;2024-01-30T13:22:21;12.20;99.90
30572;DHT22;17348;50.948;10.696;2024-01-30T13:25:23;12.20;99.90
30572;DHT22;17348;50.948;10.696;2024-01-30T13:28:28;12.20;99.90
30572;DHT22;17348;50.948;10.696;2024-01-30T13:31:31;12.20;99.90
30572;DHT22;17348;50.948;10.696;2024-01-30T13:34:34;12.20;99.90
30572;DHT22;17348;50.948;10.696;2024-01-30T13:37:36;12.30;99.90
30572;DHT22;17348;50.948;10.696;2024-01-30T13:40:38;12.20;99.90
30572;DHT22;17348;50.948;10.696;2024-01-30T13:43:41;12.20;99.90
30572;DHT22;17348;50.948;10.696;2024-01-30T13:46:44;12.20;99.90
30572;DHT22;17348;50.948;10.696;2024-01-30T13:49:47;12.10;99.90
30572;DHT22;17348;50.948;10.696;2024-01-30T13:52:52;12.20;99.90
30572;DHT22;17348;50.948;10.696;2024-01-30T13:55:55;12.10;99.90
30572;DHT22;17348;50.948;10.696;2024-01-30T13:58:57;12.10;99.90
30572;DHT22;17348;50.948;10.696;2024-01-30T14:02:02;12.00;99.90
30572;DHT22;17348;50.948;10.696;2024-01-30T14:05:07;11.80;99.90
30572;DHT22;17348;50.948;10.696;2024-01-30T14:08:09;11.60;99.90
30572;DHT22;17348;50.948;10.696;2024-01-30T14:11:11;11.60;99.90
30572;DHT22;17348;50.948;10.696;2024-01-30T14:14:14;11.50;99.90
30572;DHT22;17348;50.948;10.696;2024-01-30T14:17:23;11.40;99.90
30572;DHT22;17348;50.948;10.696;2024-01-30T14:20:25;11.30;99.90
30572;DHT22;17348;50.948;10.696;2024-01-30T14:23:27;11.20;99.90
30572;DHT22;17348;50.948;10.696;2024-01-30T14:26:31;11.20;99.90
30572;DHT22;17348;50.948;10.696;2024-01-30T14:29:42;11.20;99.90
30572;DHT22;17348;50.948;10.696;2024-01-30T14:32:46;11.20;99.90
30572;DHT22;17348;50.948;10.696;2024-01-30T14:35:52;11.20;99.90
30572;DHT22;17348;50.948;10.696;2024-01-30T14:38:58;11.20;99.90
30572;DHT22;17348;50.948;10.696;2024-01-30T14:42:00;11.20;99.90
30572;DHT22;17348;50.948;10.696;2024-01-30T14:45:03;11.10;99.90
30572;DHT22;17348;50.948;10.696;2024-01-30T14:48:07;11.10;99.90
30572;DHT22;17348;50.948;10.696;2024-01-30T14:51:11;11.10;99.90
30572;DHT22;17348;50.948;10.696;2024-01-30T14:54:15;11.00;99.90
30572;DHT22;17348;50.948;10.696;2024-01-30T14:57:18;11.00;99.90
30572;DHT22;17348;50.948;10.696;2024-01-30T15:00:22;10.90;99.90
30572;DHT22;17348;50.948;10.696;2024-01-30T15:03:30;10.90;99.90
30572;DHT22;17348;50.948;10.696;2024-01-30T15:06:35;10.90;99.90
30572;DHT22;17348;50.948;10.696;2024-01-30T15:09:38;10.90;99.90
30572;DHT22;17348;50.948;10.696;2024-01-30T15:12:43;10.80;99.90
30572;DHT22;17348;50.948;10.696;2024-01-30T15:15:45;10.70;99.90
30572;DHT22;17348;50.948;10.696;2024-01-30T15:18:49;10.60;99.90
30572;DHT22;17348;50.948;10.696;2024-01-30T15:21:52;10.60;99.90
30572;DHT22;17348;50.948;10.696;2024-01-30T15:24:54;10.50;99.90
30572;DHT22;17348;50.948;10.696;2024-01-30T15:27:56;10.50;99.90
30572;DHT22;17348;50.948;10.696;2024-01-30T15:31:02;10.50;99.90
30572;DHT22;17348;50.948;10.696;2024-01-30T15:34:06;10.50;99.90
30572;DHT22;17348;50.948;10.696;2024-01-30T15:37:08;10.50;99.90
30572;DHT22;17348;50.948;10.696;2024-01-30T15:40:11;10.40;99.90
30572;DHT22;17348;50.948;10.696;2024-01-30T15:43:13;10.40;99.90
30572;DHT22;17348;50.948;10.696;2024-01-30T15:46:16;10.30;99.90
30572;DHT22;17348;50.948;10.696;2024-01-30T15:49:19;10.40;99.90
30572;DHT22;17348;50.948;10.696;2024-01-30T15:52:28;10.30;99.90
30572;DHT22;17348;50.948;10.696;2024-01-30T15:55:30;10.20;99.90
30572;DHT22;17348;50.948;10.696;2024-01-30T15:58:32;10.10;99.90
30572;DHT22;17348;50.948;10.696;2024-01-30T16:01:35;10.10;99.90
30572;DHT22;17348;50.948;10.696;2024-01-30T16:04:38;10.10;99.90
30572;DHT22;17348;50.948;10.696;2024-01-30T16:07:40;10.00;99.90
30572;DHT22;17348;50.948;10.696;2024-01-30T16:10:43;10.00;99.90
30572;DHT22;17348;50.948;10.696;2024-01-30T16:13:45;9.90;99.90
30572;DHT22;17348;50.948;10.696;2024-01-30T16:16:51;9.90;99.90
30572;DHT22;17348;50.948;10.696;2024-01-30T16:19:55;9.80;99.90
30572;DHT22;17348;50.948;10.696;2024-01-30T16:23:00;9.80;99.90
30572;DHT22;17348;50.948;10.696;2024-01-30T16:26:03;9.70;99.90
30572;DHT22;17348;50.948;10.696;2024-01-30T16:29:06;9.70;99.90
30572;DHT22;17348;50.948;10.696;2024-01-30T16:32:08;9.70;99.90
30572;DHT22;17348;50.948;10.696;2024-01-30T16:35:14;9.70;99.90
30572;DHT22;17348;50.948;10.696;2024-01-30T16:38:16;9.60;99.90
30572;DHT22;17348;50.948;10.696;2024-01-30T16:41:19;9.60;99.90
30572;DHT22;17348;50.948;10.696;2024-01-30T16:44:21;9.60;99.90
30572;DHT22;17348;50.948;10.696;2024-01-30T16:47:23;9.70;99.90
30572;DHT22;17348;50.948;10.696;2024-01-30T16:50:27;9.70;99.90
30572;DHT22;17348;50.948;10.696;2024-01-30T16:53:29;9.70;99.90
30572;DHT22;17348;50.948;10.696;2024-01-30T16:56:32;9.70;99.90
30572;DHT22;17348;50.948;10.696;2024-01-30T16:59:34;9.70;99.90
30572;DHT22;17348;50.948;10.696;2024-01-30T17:02:36;9.70;99.90
30572;DHT22;17348;50.948;10.696;2024-01-30T17:05:42;9.70;99.90
30572;DHT22;17348;50.948;10.696;2024-01-30T17:08:45;9.70;99.90
30572;DHT22;17348;50.948;10.696;2024-01-30T17:11:47;9.60;99.90
30572;DHT22;17348;50.948;10.696;2024-01-30T17:14:51;9.60;99.90
30572;DHT22;17348;50.948;10.696;2024-01-30T17:17:54;9.50;99.90
30572;DHT22;17348;50.948;10.696;2024-01-30T17:20:57;9.50;99.90
30572;DHT22;17348;50.948;10.696;2024-01-30T17:24:00;9.50;99.90
30572;DHT22;17348;50.948;10.696;2024-01-30T17:27:03;9.40;99.90
30572;DHT22;17348;50.948;10.696;2024-01-30T17:30:06;9.40;99.90
30572;DHT22;17348;50.948;10.696;2024-01-30T17:33:09;9.40;99.90
30572;DHT22;17348;50.948;10.696;2024-01-30T17:36:15;9.40;99.90
30572;DHT22;17348;50.948;10.696;2024-01-30T17:39:18;9.40;99.90
30572;DHT22;17348;50.948;10.696;2024-01-30T17:42:20;9.40;99.90
30572;DHT22;17348;50.948;10.696;2024-01-30T17:45:24;9.40;99.90
30572;DHT22;17348;50.948;10.696;2024-01-30T17:48:27;9.40;99.90
30572;DHT22;17348;50.948;10.696;2024-01-30T17:51:31;9.40;99.90
30572;DHT22;17348;50.948;10.696;2024-01-30T17:54:42;9.40;99.90
30572;DHT22;17348;50.948;10.696;2024-01-30T17:57:44;9.40;99.90
30572;DHT22;17348;50.948;10.696;2024-01-30T18:00:49;9.40;99.90
30572;DHT22;17348;50.948;10.696;2024-01-30T18:03:52;9.40;99.90
30572;DHT22;17348;50.948;10.696;2024-01-30T18:06:57;9.40;99.90
30572;DHT22;17348;50.948;10.696;2024-01-30T18:10:00;9.40;99.90
30572;DHT22;17348;50.948;10.696;2024-01-30T18:13:02;9.40;99.90
30572;DHT22;17348;50.948;10.696;2024-01-30T18:16:07;9.40;99.90
30572;DHT22;17348;50.948;10.696;2024-01-30T18:19:15;9.40;99.90
30572;DHT22;17348;50.948;10.696;2024-01-30T18:22:19;9.40;99.90
30572;DHT22;17348;50.948;10.696;2024-01-30T18:25:21;9.40;99.90
30572;DHT22;17348;50.948;10.696;2024-01-30T18:28:24;9.40;99.90
30572;DHT22;17348;50.948;10.696;2024-01-30T18:31:26;9.40;99.90
30572;DHT22;17348;50.948;10.696;2024-01-30T18:34:33;9.50;99.90
30572;DHT22;17348;50.948;10.696;2024-01-30T18:37:37;9.50;99.90
30572;DHT22;17348;50.948;10.696;2024-01-30T18:40:40;9.50;99.90
30572;DHT22;17348;50.948;10.696;2024-01-30T18:43:42;9.50;99.90
30572;DHT22;17348;50.948;10.696;2024-01-30T18:46:45;9.50;99.90
30572;DHT22;17348;50.948;10.696;2024-01-30T18:49:48;9.60;99.90
30572;DHT22;17348;50.948;10.696;2024-01-30T18:52:54;9.60;99.90
30572;DHT22;17348;50.948;10.696;2024-01-30T18:55:57;9.60;99.90
30572;DHT22;17348;50.948;10.696;2024-01-30T18:59:01;9.60;99.90
30572;DHT22;17348;50.948;10.696;2024-01-30T19:02:07;9.60;99.90
30572;DHT22;17348;50.948;10.696;2024-01-30T19:05:09;9.60;99.90
30572;DHT22;17348;50.948;10.696;2024-01-30T19:08:15;9.60;99.90
30572;DHT22;17348;50.948;10.696;2024-01-30T19:11:18;9.60;99.90
30572;DHT22;17348;50.948;10.696;2024-01-30T19:14:22;9.60;99.90
30572;DHT22;17348;50.948;10.696;2024-01-30T19:17:28;9.60;99.90